sensor_id;sensor_type;location;lat;lon;timestamp;P1;durP1;ratioP1;P2;durP2;ratioP2
59788;SDS011;47353;51.614;5.530;2023-03-01T00:01:25;16.53;;;10.27;;
59788;SDS011;47353;51.614;5.530;2023-03-01T00:03:52;15.10;;;10.20;;
59788;SDS011;47353;51.614;5.530;2023-03-01T00:06:19;16.10;;;10.53;;
59788;SDS011;47353;51.614;5.530;2023-03-01T00:08:45;18.33;;;10.67;;
59788;SDS011;47353;51.614;5.530;2023-03-01T00:13:44;17.70;;;10.97;;
59788;SDS011;47353;51.614;5.530;2023-03-01T00:16:12;14.63;;;10.20;;
59788;SDS011;47353;51.614;5.530;2023-03-01T00:18:39;15.90;;;10.20;;
59788;SDS011;47353;51.614;5.530;2023-03-01T00:21:05;17.93;;;10.87;;
59788;SDS011;47353;51.614;5.530;2023-03-01T00:23:31;17.17;;;10.33;;
59788;SDS011;47353;51.614;5.530;2023-03-01T00:25:58;16.70;;;10.77;;
59788;SDS011;47353;51.614;5.530;2023-03-01T00:28:24;15.63;;;10.33;;
59788;SDS011;47353;51.614;5.530;2023-03-01T00:30:49;16.10;;;10.37;;
59788;SDS011;47353;51.614;5.530;2023-03-01T00:33:14;14.87;;;10.47;;
59788;SDS011;47353;51.614;5.530;2023-03-01T00:35:40;18.17;;;11.03;;
59788;SDS011;47353;51.614;5.530;2023-03-01T00:38:06;16.57;;;10.40;;
59788;SDS011;47353;51.614;5.530;2023-03-01T00:40:33;15.97;;;10.30;;
59788;SDS011;47353;51.614;5.530;2023-03-01T00:43:01;15.80;;;10.33;;
59788;SDS011;47353;51.614;5.530;2023-03-01T00:45:27;16.00;;;9.80;;
59788;SDS011;47353;51.614;5.530;2023-03-01T00:47:52;16.73;;;9.53;;
59788;SDS011;47353;51.614;5.530;2023-03-01T00:50:18;16.43;;;10.13;;
59788;SDS011;47353;51.614;5.530;2023-03-01T00:52:44;15.73;;;9.77;;
59788;SDS011;47353;51.614;5.530;2023-03-01T00:55:10;17.10;;;10.00;;
59788;SDS011;47353;51.614;5.530;2023-03-01T00:57:36;17.70;;;10.23;;
59788;SDS011;47353;51.614;5.530;2023-03-01T01:00:03;15.77;;;10.27;;
59788;SDS011;47353;51.614;5.530;2023-03-01T01:02:29;15.27;;;9.47;;
59788;SDS011;47353;51.614;5.530;2023-03-01T01:04:57;14.57;;;9.63;;
59788;SDS011;47353;51.614;5.530;2023-03-01T01:07:23;16.13;;;9.93;;
59788;SDS011;47353;51.614;5.530;2023-03-01T01:09:48;16.53;;;10.00;;
59788;SDS011;47353;51.614;5.530;2023-03-01T01:12:13;19.63;;;10.23;;
59788;SDS011;47353;51.614;5.530;2023-03-01T01:14:39;15.20;;;10.00;;
59788;SDS011;47353;51.614;5.530;2023-03-01T01:17:04;15.83;;;9.83;;
59788;SDS011;47353;51.614;5.530;2023-03-01T01:19:30;14.13;;;9.67;;
59788;SDS011;47353;51.614;5.530;2023-03-01T01:21:55;15.03;;;9.60;;
59788;SDS011;47353;51.614;5.530;2023-03-01T01:24:21;16.33;;;9.83;;
59788;SDS011;47353;51.614;5.530;2023-03-01T01:26:46;17.13;;;10.03;;
59788;SDS011;47353;51.614;5.530;2023-03-01T01:29:12;18.37;;;9.63;;
59788;SDS011;47353;51.614;5.530;2023-03-01T01:31:38;17.10;;;10.37;;
59788;SDS011;47353;51.614;5.530;2023-03-01T01:34:06;18.10;;;9.70;;
59788;SDS011;47353;51.614;5.530;2023-03-01T01:36:32;17.37;;;10.50;;
59788;SDS011;47353;51.614;5.530;2023-03-01T01:38:59;15.73;;;10.27;;
59788;SDS011;47353;51.614;5.530;2023-03-01T01:41:25;14.07;;;9.53;;
59788;SDS011;47353;51.614;5.530;2023-03-01T01:46:40;15.10;;;9.87;;
59788;SDS011;47353;51.614;5.530;2023-03-01T01:49:07;16.97;;;9.97;;
59788;SDS011;47353;51.614;5.530;2023-03-01T01:51:44;15.63;;;9.87;;
59788;SDS011;47353;51.614;5.530;2023-03-01T01:54:25;16.60;;;9.73;;
59788;SDS011;47353;51.614;5.530;2023-03-01T01:57:04;16.63;;;9.73;;
59788;SDS011;47353;51.614;5.530;2023-03-01T01:59:34;17.13;;;9.33;;
59788;SDS011;47353;51.614;5.530;2023-03-01T02:02:04;14.57;;;9.63;;
59788;SDS011;47353;51.614;5.530;2023-03-01T02:04:30;14.57;;;9.20;;
59788;SDS011;47353;51.614;5.530;2023-03-01T02:06:58;17.87;;;9.73;;
59788;SDS011;47353;51.614;5.530;2023-03-01T02:09:27;16.43;;;9.77;;
59788;SDS011;47353;51.614;5.530;2023-03-01T02:11:53;15.20;;;9.43;;
59788;SDS011;47353;51.614;5.530;2023-03-01T02:14:19;15.30;;;9.67;;
59788;SDS011;47353;51.614;5.530;2023-03-01T02:16:45;16.70;;;9.73;;
59788;SDS011;47353;51.614;5.530;2023-03-01T02:19:13;19.10;;;9.67;;
59788;SDS011;47353;51.614;5.530;2023-03-01T02:21:53;13.80;;;9.10;;
59788;SDS011;47353;51.614;5.530;2023-03-01T02:27:22;14.03;;;9.20;;
59788;SDS011;47353;51.614;5.530;2023-03-01T02:29:53;14.93;;;9.17;;
59788;SDS011;47353;51.614;5.530;2023-03-01T02:32:19;18.63;;;9.30;;
59788;SDS011;47353;51.614;5.530;2023-03-01T02:34:50;13.27;;;8.80;;
59788;SDS011;47353;51.614;5.530;2023-03-01T02:37:17;13.27;;;8.80;;
59788;SDS011;47353;51.614;5.530;2023-03-01T02:39:50;17.20;;;9.30;;
59788;SDS011;47353;51.614;5.530;2023-03-01T02:42:24;13.10;;;8.70;;
59788;SDS011;47353;51.614;5.530;2023-03-01T02:44:55;14.00;;;8.63;;
59788;SDS011;47353;51.614;5.530;2023-03-01T02:47:21;13.40;;;8.47;;
59788;SDS011;47353;51.614;5.530;2023-03-01T02:49:46;13.20;;;8.73;;
59788;SDS011;47353;51.614;5.530;2023-03-01T02:55:01;13.63;;;9.03;;
59788;SDS011;47353;51.614;5.530;2023-03-01T02:57:32;12.48;;;8.07;;
59788;SDS011;47353;51.614;5.530;2023-03-01T03:00:05;13.87;;;8.70;;
59788;SDS011;47353;51.614;5.530;2023-03-01T03:02:33;14.43;;;8.53;;
59788;SDS011;47353;51.614;5.530;2023-03-01T03:05:09;14.70;;;8.57;;
59788;SDS011;47353;51.614;5.530;2023-03-01T03:07:41;14.43;;;8.30;;
59788;SDS011;47353;51.614;5.530;2023-03-01T03:10:09;15.07;;;8.47;;
59788;SDS011;47353;51.614;5.530;2023-03-01T03:12:49;15.37;;;8.00;;
59788;SDS011;47353;51.614;5.530;2023-03-01T03:15:19;15.10;;;7.90;;
59788;SDS011;47353;51.614;5.530;2023-03-01T03:17:45;14.07;;;8.33;;
59788;SDS011;47353;51.614;5.530;2023-03-01T03:20:12;15.23;;;8.23;;
59788;SDS011;47353;51.614;5.530;2023-03-01T03:22:44;13.87;;;8.40;;
59788;SDS011;47353;51.614;5.530;2023-03-01T03:25:13;13.10;;;7.87;;
59788;SDS011;47353;51.614;5.530;2023-03-01T03:27:39;12.03;;;7.80;;
59788;SDS011;47353;51.614;5.530;2023-03-01T03:30:07;13.07;;;7.83;;
59788;SDS011;47353;51.614;5.530;2023-03-01T03:32:37;14.10;;;7.77;;
59788;SDS011;47353;51.614;5.530;2023-03-01T03:35:03;14.93;;;8.00;;
59788;SDS011;47353;51.614;5.530;2023-03-01T03:37:37;12.40;;;7.73;;
59788;SDS011;47353;51.614;5.530;2023-03-01T03:40:22;12.77;;;7.47;;
59788;SDS011;47353;51.614;5.530;2023-03-01T03:42:48;11.53;;;7.10;;
59788;SDS011;47353;51.614;5.530;2023-03-01T03:45:14;12.47;;;7.60;;
59788;SDS011;47353;51.614;5.530;2023-03-01T03:47:40;12.37;;;7.20;;
59788;SDS011;47353;51.614;5.530;2023-03-01T03:50:05;12.57;;;7.63;;
59788;SDS011;47353;51.614;5.530;2023-03-01T03:52:31;14.17;;;7.67;;
59788;SDS011;47353;51.614;5.530;2023-03-01T03:54:56;12.30;;;7.80;;
59788;SDS011;47353;51.614;5.530;2023-03-01T03:57:21;13.10;;;7.90;;
59788;SDS011;47353;51.614;5.530;2023-03-01T03:59:47;12.70;;;7.70;;
59788;SDS011;47353;51.614;5.530;2023-03-01T04:02:12;14.47;;;7.97;;
59788;SDS011;47353;51.614;5.530;2023-03-01T04:04:37;12.67;;;8.13;;
59788;SDS011;47353;51.614;5.530;2023-03-01T04:07:03;12.40;;;7.97;;
59788;SDS011;47353;51.614;5.530;2023-03-01T04:09:28;14.53;;;8.20;;
59788;SDS011;47353;51.614;5.530;2023-03-01T04:11:55;12.77;;;7.70;;
59788;SDS011;47353;51.614;5.530;2023-03-01T04:14:20;14.53;;;8.13;;
59788;SDS011;47353;51.614;5.530;2023-03-01T04:16:46;13.27;;;8.00;;
59788;SDS011;47353;51.614;5.530;2023-03-01T04:19:11;14.77;;;8.23;;
59788;SDS011;47353;51.614;5.530;2023-03-01T04:21:37;15.87;;;8.53;;
59788;SDS011;47353;51.614;5.530;2023-03-01T04:24:02;14.13;;;8.13;;
59788;SDS011;47353;51.614;5.530;2023-03-01T04:26:29;13.73;;;8.17;;
59788;SDS011;47353;51.614;5.530;2023-03-01T04:28:54;14.17;;;8.47;;
59788;SDS011;47353;51.614;5.530;2023-03-01T04:31:20;14.80;;;8.27;;
59788;SDS011;47353;51.614;5.530;2023-03-01T04:36:19;14.30;;;8.65;;
59788;SDS011;47353;51.614;5.530;2023-03-01T04:38:46;12.90;;;8.40;;
59788;SDS011;47353;51.614;5.530;2023-03-01T04:41:16;13.03;;;7.97;;
59788;SDS011;47353;51.614;5.530;2023-03-01T04:43:42;16.80;;;8.73;;
59788;SDS011;47353;51.614;5.530;2023-03-01T04:46:10;14.93;;;8.53;;
59788;SDS011;47353;51.614;5.530;2023-03-01T04:48:38;18.00;;;8.60;;
59788;SDS011;47353;51.614;5.530;2023-03-01T04:51:05;14.47;;;8.73;;
59788;SDS011;47353;51.614;5.530;2023-03-01T04:53:31;16.03;;;9.30;;
59788;SDS011;47353;51.614;5.530;2023-03-01T04:55:57;15.80;;;8.97;;
59788;SDS011;47353;51.614;5.530;2023-03-01T04:58:23;13.93;;;8.60;;
59788;SDS011;47353;51.614;5.530;2023-03-01T05:00:49;15.23;;;8.70;;
59788;SDS011;47353;51.614;5.530;2023-03-01T05:03:15;17.07;;;8.83;;
59788;SDS011;47353;51.614;5.530;2023-03-01T05:05:43;15.20;;;9.20;;
59788;SDS011;47353;51.614;5.530;2023-03-01T05:08:10;15.20;;;9.43;;
59788;SDS011;47353;51.614;5.530;2023-03-01T05:10:42;16.92;;;9.40;;
59788;SDS011;47353;51.614;5.530;2023-03-01T05:13:14;16.27;;;8.95;;
59788;SDS011;47353;51.614;5.530;2023-03-01T05:15:45;15.93;;;9.07;;
59788;SDS011;47353;51.614;5.530;2023-03-01T05:18:12;14.80;;;9.23;;
59788;SDS011;47353;51.614;5.530;2023-03-01T05:20:37;13.73;;;8.97;;
59788;SDS011;47353;51.614;5.530;2023-03-01T05:23:03;15.10;;;8.80;;
59788;SDS011;47353;51.614;5.530;2023-03-01T05:25:30;18.97;;;9.13;;
59788;SDS011;47353;51.614;5.530;2023-03-01T05:27:58;16.33;;;9.47;;
59788;SDS011;47353;51.614;5.530;2023-03-01T05:30:29;18.97;;;9.53;;
59788;SDS011;47353;51.614;5.530;2023-03-01T05:33:04;15.37;;;9.03;;
59788;SDS011;47353;51.614;5.530;2023-03-01T05:35:32;15.13;;;9.10;;
59788;SDS011;47353;51.614;5.530;2023-03-01T05:37:57;14.53;;;8.73;;
59788;SDS011;47353;51.614;5.530;2023-03-01T05:40:23;15.63;;;9.30;;
59788;SDS011;47353;51.614;5.530;2023-03-01T05:42:55;16.13;;;9.40;;
59788;SDS011;47353;51.614;5.530;2023-03-01T05:45:22;15.02;;;9.43;;
59788;SDS011;47353;51.614;5.530;2023-03-01T05:47:49;16.73;;;9.70;;
59788;SDS011;47353;51.614;5.530;2023-03-01T05:50:23;18.03;;;9.53;;
59788;SDS011;47353;51.614;5.530;2023-03-01T05:52:51;15.10;;;9.83;;
59788;SDS011;47353;51.614;5.530;2023-03-01T05:55:21;14.73;;;9.13;;
59788;SDS011;47353;51.614;5.530;2023-03-01T05:57:47;15.87;;;9.17;;
59788;SDS011;47353;51.614;5.530;2023-03-01T06:00:13;16.37;;;9.27;;
59788;SDS011;47353;51.614;5.530;2023-03-01T06:02:40;15.57;;;9.43;;
59788;SDS011;47353;51.614;5.530;2023-03-01T06:05:06;19.10;;;9.93;;
59788;SDS011;47353;51.614;5.530;2023-03-01T06:07:34;15.23;;;9.30;;
59788;SDS011;47353;51.614;5.530;2023-03-01T06:10:00;15.97;;;9.17;;
59788;SDS011;47353;51.614;5.530;2023-03-01T06:12:26;16.10;;;9.57;;
59788;SDS011;47353;51.614;5.530;2023-03-01T06:14:51;17.83;;;9.50;;
59788;SDS011;47353;51.614;5.530;2023-03-01T06:17:16;16.23;;;10.07;;
59788;SDS011;47353;51.614;5.530;2023-03-01T06:19:42;17.33;;;9.70;;
59788;SDS011;47353;51.614;5.530;2023-03-01T06:22:07;20.57;;;9.77;;
59788;SDS011;47353;51.614;5.530;2023-03-01T06:24:33;21.53;;;9.90;;
59788;SDS011;47353;51.614;5.530;2023-03-01T06:26:59;17.47;;;10.03;;
59788;SDS011;47353;51.614;5.530;2023-03-01T06:29:24;18.53;;;9.80;;
59788;SDS011;47353;51.614;5.530;2023-03-01T06:31:50;19.40;;;10.30;;
59788;SDS011;47353;51.614;5.530;2023-03-01T06:34:15;18.10;;;10.60;;
59788;SDS011;47353;51.614;5.530;2023-03-01T06:36:40;20.70;;;10.70;;
59788;SDS011;47353;51.614;5.530;2023-03-01T06:39:06;17.83;;;10.00;;
59788;SDS011;47353;51.614;5.530;2023-03-01T06:41:32;17.13;;;9.70;;
59788;SDS011;47353;51.614;5.530;2023-03-01T06:43:58;16.07;;;10.10;;
59788;SDS011;47353;51.614;5.530;2023-03-01T06:46:24;19.27;;;10.27;;
59788;SDS011;47353;51.614;5.530;2023-03-01T06:48:49;16.93;;;10.10;;
59788;SDS011;47353;51.614;5.530;2023-03-01T06:51:14;16.83;;;10.70;;
59788;SDS011;47353;51.614;5.530;2023-03-01T06:53:40;17.07;;;10.03;;
59788;SDS011;47353;51.614;5.530;2023-03-01T06:56:05;16.97;;;10.13;;
59788;SDS011;47353;51.614;5.530;2023-03-01T06:58:31;19.93;;;10.83;;
59788;SDS011;47353;51.614;5.530;2023-03-01T07:00:56;16.97;;;10.33;;
59788;SDS011;47353;51.614;5.530;2023-03-01T07:03:22;16.57;;;10.37;;
59788;SDS011;47353;51.614;5.530;2023-03-01T07:05:50;19.03;;;10.83;;
59788;SDS011;47353;51.614;5.530;2023-03-01T07:08:19;15.80;;;10.23;;
59788;SDS011;47353;51.614;5.530;2023-03-01T07:10:44;18.73;;;10.67;;
59788;SDS011;47353;51.614;5.530;2023-03-01T07:13:10;16.40;;;10.47;;
59788;SDS011;47353;51.614;5.530;2023-03-01T07:15:35;17.17;;;10.30;;
59788;SDS011;47353;51.614;5.530;2023-03-01T07:18:01;18.73;;;10.77;;
59788;SDS011;47353;51.614;5.530;2023-03-01T07:20:26;16.67;;;11.00;;
59788;SDS011;47353;51.614;5.530;2023-03-01T07:22:52;17.40;;;10.10;;
59788;SDS011;47353;51.614;5.530;2023-03-01T07:25:18;19.13;;;10.43;;
59788;SDS011;47353;51.614;5.530;2023-03-01T07:27:48;16.20;;;10.33;;
59788;SDS011;47353;51.614;5.530;2023-03-01T07:30:14;17.70;;;10.60;;
59788;SDS011;47353;51.614;5.530;2023-03-01T07:32:39;16.33;;;10.37;;
59788;SDS011;47353;51.614;5.530;2023-03-01T07:35:05;16.90;;;10.60;;
59788;SDS011;47353;51.614;5.530;2023-03-01T07:37:31;19.17;;;10.57;;
59788;SDS011;47353;51.614;5.530;2023-03-01T07:39:56;17.20;;;10.40;;
59788;SDS011;47353;51.614;5.530;2023-03-01T07:42:22;15.07;;;10.27;;
59788;SDS011;47353;51.614;5.530;2023-03-01T07:44:48;17.77;;;10.20;;
59788;SDS011;47353;51.614;5.530;2023-03-01T07:47:13;17.67;;;10.10;;
59788;SDS011;47353;51.614;5.530;2023-03-01T07:49:39;15.47;;;10.80;;
59788;SDS011;47353;51.614;5.530;2023-03-01T07:52:04;14.33;;;9.70;;
59788;SDS011;47353;51.614;5.530;2023-03-01T07:54:30;14.57;;;9.87;;
59788;SDS011;47353;51.614;5.530;2023-03-01T07:56:56;16.33;;;10.10;;
59788;SDS011;47353;51.614;5.530;2023-03-01T07:59:21;15.20;;;9.90;;
59788;SDS011;47353;51.614;5.530;2023-03-01T08:01:48;15.70;;;9.93;;
59788;SDS011;47353;51.614;5.530;2023-03-01T08:04:14;16.13;;;9.98;;
59788;SDS011;47353;51.614;5.530;2023-03-01T08:06:39;14.60;;;9.57;;
59788;SDS011;47353;51.614;5.530;2023-03-01T08:09:04;15.63;;;9.90;;
59788;SDS011;47353;51.614;5.530;2023-03-01T08:11:30;15.20;;;9.25;;
59788;SDS011;47353;51.614;5.530;2023-03-01T08:13:56;14.00;;;9.63;;
59788;SDS011;47353;51.614;5.530;2023-03-01T08:16:22;15.75;;;9.30;;
59788;SDS011;47353;51.614;5.530;2023-03-01T08:18:48;13.05;;;9.10;;
59788;SDS011;47353;51.614;5.530;2023-03-01T08:21:15;12.60;;;9.10;;
59788;SDS011;47353;51.614;5.530;2023-03-01T08:23:42;17.58;;;8.85;;
59788;SDS011;47353;51.614;5.530;2023-03-01T08:26:08;14.82;;;9.57;;
59788;SDS011;47353;51.614;5.530;2023-03-01T08:28:38;16.92;;;9.07;;
59788;SDS011;47353;51.614;5.530;2023-03-01T08:31:16;17.13;;;8.52;;
59788;SDS011;47353;51.614;5.530;2023-03-01T08:33:46;12.02;;;8.57;;
59788;SDS011;47353;51.614;5.530;2023-03-01T08:36:22;12.10;;;8.88;;
59788;SDS011;47353;51.614;5.530;2023-03-01T08:38:48;11.10;;;7.93;;
59788;SDS011;47353;51.614;5.530;2023-03-01T08:41:13;10.73;;;7.90;;
59788;SDS011;47353;51.614;5.530;2023-03-01T08:43:39;10.48;;;8.15;;
59788;SDS011;47353;51.614;5.530;2023-03-01T08:46:05;12.35;;;8.00;;
59788;SDS011;47353;51.614;5.530;2023-03-01T08:48:30;9.88;;;7.68;;
59788;SDS011;47353;51.614;5.530;2023-03-01T08:50:56;10.85;;;8.15;;
59788;SDS011;47353;51.614;5.530;2023-03-01T08:53:21;11.27;;;7.72;;
59788;SDS011;47353;51.614;5.530;2023-03-01T08:55:47;11.27;;;8.20;;
59788;SDS011;47353;51.614;5.530;2023-03-01T08:58:12;12.70;;;8.05;;
59788;SDS011;47353;51.614;5.530;2023-03-01T09:00:38;11.45;;;8.20;;
59788;SDS011;47353;51.614;5.530;2023-03-01T09:03:03;11.23;;;7.68;;
59788;SDS011;47353;51.614;5.530;2023-03-01T09:05:31;10.55;;;7.60;;
59788;SDS011;47353;51.614;5.530;2023-03-01T09:07:57;9.55;;;7.30;;
59788;SDS011;47353;51.614;5.530;2023-03-01T09:10:23;10.18;;;7.28;;
59788;SDS011;47353;51.614;5.530;2023-03-01T09:12:48;10.90;;;8.43;;
59788;SDS011;47353;51.614;5.530;2023-03-01T09:15:14;11.65;;;7.25;;
59788;SDS011;47353;51.614;5.530;2023-03-01T09:17:39;10.45;;;7.50;;
59788;SDS011;47353;51.614;5.530;2023-03-01T09:20:05;10.10;;;7.55;;
59788;SDS011;47353;51.614;5.530;2023-03-01T09:22:32;8.80;;;7.30;;
59788;SDS011;47353;51.614;5.530;2023-03-01T09:24:59;10.70;;;7.22;;
59788;SDS011;47353;51.614;5.530;2023-03-01T09:27:24;9.63;;;7.13;;
59788;SDS011;47353;51.614;5.530;2023-03-01T09:29:50;9.40;;;7.15;;
59788;SDS011;47353;51.614;5.530;2023-03-01T09:32:15;9.35;;;7.18;;
59788;SDS011;47353;51.614;5.530;2023-03-01T09:34:40;9.15;;;6.97;;
59788;SDS011;47353;51.614;5.530;2023-03-01T09:37:25;9.10;;;7.07;;
59788;SDS011;47353;51.614;5.530;2023-03-01T09:39:51;7.75;;;6.78;;
59788;SDS011;47353;51.614;5.530;2023-03-01T09:42:17;8.70;;;6.95;;
59788;SDS011;47353;51.614;5.530;2023-03-01T09:44:52;9.43;;;6.57;;
59788;SDS011;47353;51.614;5.530;2023-03-01T09:47:29;7.70;;;6.90;;
59788;SDS011;47353;51.614;5.530;2023-03-01T09:50:17;9.82;;;7.03;;
59788;SDS011;47353;51.614;5.530;2023-03-01T09:52:52;8.30;;;6.70;;
59788;SDS011;47353;51.614;5.530;2023-03-01T09:55:30;7.55;;;6.68;;
59788;SDS011;47353;51.614;5.530;2023-03-01T10:00:31;8.55;;;6.53;;
59788;SDS011;47353;51.614;5.530;2023-03-01T10:10:56;8.48;;;6.93;;
59788;SDS011;47353;51.614;5.530;2023-03-01T10:13:28;8.68;;;6.78;;
59788;SDS011;47353;51.614;5.530;2023-03-01T10:19:02;8.30;;;6.97;;
59788;SDS011;47353;51.614;5.530;2023-03-01T10:21:30;9.32;;;6.47;;
59788;SDS011;47353;51.614;5.530;2023-03-01T10:23:59;8.43;;;7.15;;
59788;SDS011;47353;51.614;5.530;2023-03-01T10:26:41;9.35;;;7.00;;
59788;SDS011;47353;51.614;5.530;2023-03-01T10:29:13;7.97;;;6.40;;
59788;SDS011;47353;51.614;5.530;2023-03-01T10:31:41;8.80;;;6.72;;
59788;SDS011;47353;51.614;5.530;2023-03-01T10:34:22;8.75;;;6.82;;
59788;SDS011;47353;51.614;5.530;2023-03-01T10:36:53;8.93;;;6.90;;
59788;SDS011;47353;51.614;5.530;2023-03-01T10:39:24;8.82;;;6.15;;
59788;SDS011;47353;51.614;5.530;2023-03-01T10:47:17;7.45;;;5.90;;
59788;SDS011;47353;51.614;5.530;2023-03-01T10:49:55;8.60;;;6.32;;
59788;SDS011;47353;51.614;5.530;2023-03-01T10:52:31;9.25;;;6.65;;
59788;SDS011;47353;51.614;5.530;2023-03-01T10:55:03;9.52;;;6.70;;
59788;SDS011;47353;51.614;5.530;2023-03-01T10:57:31;7.70;;;6.85;;
59788;SDS011;47353;51.614;5.530;2023-03-01T11:03:31;15.48;;;6.70;;
59788;SDS011;47353;51.614;5.530;2023-03-01T11:05:52;8.02;;;6.45;;
59788;SDS011;47353;51.614;5.530;2023-03-01T11:08:38;8.35;;;6.35;;
59788;SDS011;47353;51.614;5.530;2023-03-01T11:14:06;7.45;;;6.60;;
59788;SDS011;47353;51.614;5.530;2023-03-01T11:16:36;7.30;;;5.82;;
59788;SDS011;47353;51.614;5.530;2023-03-01T11:21:47;8.38;;;6.47;;
59788;SDS011;47353;51.614;5.530;2023-03-01T11:24:15;8.88;;;6.63;;
59788;SDS011;47353;51.614;5.530;2023-03-01T11:26:43;8.82;;;6.40;;
59788;SDS011;47353;51.614;5.530;2023-03-01T11:29:21;11.57;;;6.82;;
59788;SDS011;47353;51.614;5.530;2023-03-01T11:31:56;8.35;;;6.80;;
59788;SDS011;47353;51.614;5.530;2023-03-01T11:34:35;9.60;;;6.65;;
59788;SDS011;47353;51.614;5.530;2023-03-01T11:37:08;7.68;;;6.80;;
59788;SDS011;47353;51.614;5.530;2023-03-01T11:39:50;7.53;;;6.30;;
59788;SDS011;47353;51.614;5.530;2023-03-01T11:45:14;15.45;;;6.88;;
59788;SDS011;47353;51.614;5.530;2023-03-01T11:52:48;8.75;;;6.40;;
59788;SDS011;47353;51.614;5.530;2023-03-01T12:25:39;7.68;;;6.82;;
59788;SDS011;47353;51.614;5.530;2023-03-01T12:33:45;8.85;;;6.88;;
59788;SDS011;47353;51.614;5.530;2023-03-01T12:44:33;7.20;;;6.50;;
59788;SDS011;47353;51.614;5.530;2023-03-01T12:50:11;7.13;;;6.43;;
59788;SDS011;47353;51.614;5.530;2023-03-01T12:52:58;7.57;;;6.80;;
59788;SDS011;47353;51.614;5.530;2023-03-01T12:55:37;10.05;;;6.50;;
59788;SDS011;47353;51.614;5.530;2023-03-01T12:58:21;7.53;;;6.57;;
59788;SDS011;47353;51.614;5.530;2023-03-01T13:17:58;7.65;;;6.10;;
59788;SDS011;47353;51.614;5.530;2023-03-01T13:22:59;9.10;;;6.35;;
59788;SDS011;47353;51.614;5.530;2023-03-01T13:25:27;8.63;;;6.95;;
59788;SDS011;47353;51.614;5.530;2023-03-01T13:27:52;9.40;;;6.68;;
59788;SDS011;47353;51.614;5.530;2023-03-01T13:30:56;8.80;;;6.25;;
59788;SDS011;47353;51.614;5.530;2023-03-01T13:33:33;7.53;;;6.75;;
59788;SDS011;47353;51.614;5.530;2023-03-01T13:36:07;8.45;;;6.90;;
59788;SDS011;47353;51.614;5.530;2023-03-01T13:44:12;9.05;;;7.00;;
59788;SDS011;47353;51.614;5.530;2023-03-01T13:46:37;10.07;;;7.68;;
59788;SDS011;47353;51.614;5.530;2023-03-01T13:49:03;7.78;;;6.20;;
59788;SDS011;47353;51.614;5.530;2023-03-01T13:51:28;7.22;;;6.53;;
59788;SDS011;47353;51.614;5.530;2023-03-01T13:53:55;8.20;;;6.70;;
59788;SDS011;47353;51.614;5.530;2023-03-01T13:56:26;8.35;;;6.68;;
59788;SDS011;47353;51.614;5.530;2023-03-01T14:01:54;8.10;;;7.15;;
59788;SDS011;47353;51.614;5.530;2023-03-01T14:04:23;10.38;;;6.68;;
59788;SDS011;47353;51.614;5.530;2023-03-01T14:06:51;8.65;;;6.65;;
59788;SDS011;47353;51.614;5.530;2023-03-01T14:09:20;8.65;;;6.80;;
59788;SDS011;47353;51.614;5.530;2023-03-01T14:11:56;9.68;;;6.90;;
59788;SDS011;47353;51.614;5.530;2023-03-01T14:14:57;7.90;;;7.10;;
59788;SDS011;47353;51.614;5.530;2023-03-01T14:17:39;10.20;;;7.15;;
59788;SDS011;47353;51.614;5.530;2023-03-01T14:20:27;10.45;;;7.00;;
59788;SDS011;47353;51.614;5.530;2023-03-01T14:22:56;7.90;;;7.10;;
59788;SDS011;47353;51.614;5.530;2023-03-01T14:25:25;8.25;;;7.32;;
59788;SDS011;47353;51.614;5.530;2023-03-01T14:27:55;7.97;;;7.07;;
59788;SDS011;47353;51.614;5.530;2023-03-01T14:30:25;8.50;;;7.18;;
59788;SDS011;47353;51.614;5.530;2023-03-01T14:33:04;7.95;;;7.15;;
59788;SDS011;47353;51.614;5.530;2023-03-01T14:35:32;7.80;;;7.10;;
59788;SDS011;47353;51.614;5.530;2023-03-01T14:38:00;7.97;;;7.13;;
59788;SDS011;47353;51.614;5.530;2023-03-01T14:40:28;10.73;;;7.07;;
59788;SDS011;47353;51.614;5.530;2023-03-01T14:42:57;9.52;;;7.97;;
59788;SDS011;47353;51.614;5.530;2023-03-01T14:45:28;8.45;;;7.38;;
59788;SDS011;47353;51.614;5.530;2023-03-01T14:48:02;8.07;;;7.18;;
59788;SDS011;47353;51.614;5.530;2023-03-01T14:50:30;10.30;;;7.38;;
59788;SDS011;47353;51.614;5.530;2023-03-01T14:52:58;8.80;;;7.78;;
59788;SDS011;47353;51.614;5.530;2023-03-01T14:55:29;10.45;;;7.45;;
59788;SDS011;47353;51.614;5.530;2023-03-01T14:57:58;8.65;;;7.45;;
59788;SDS011;47353;51.614;5.530;2023-03-01T15:00:27;9.43;;;7.72;;
59788;SDS011;47353;51.614;5.530;2023-03-01T15:02:55;8.82;;;7.78;;
59788;SDS011;47353;51.614;5.530;2023-03-01T15:05:27;9.63;;;8.00;;
59788;SDS011;47353;51.614;5.530;2023-03-01T15:07:59;10.20;;;8.05;;
59788;SDS011;47353;51.614;5.530;2023-03-01T15:10:27;8.93;;;7.82;;
59788;SDS011;47353;51.614;5.530;2023-03-01T15:12:55;8.85;;;7.90;;
59788;SDS011;47353;51.614;5.530;2023-03-01T15:15:35;9.15;;;7.88;;
59788;SDS011;47353;51.614;5.530;2023-03-01T15:18:04;10.45;;;8.27;;
59788;SDS011;47353;51.614;5.530;2023-03-01T15:20:49;8.48;;;7.57;;
59788;SDS011;47353;51.614;5.530;2023-03-01T15:23:26;10.23;;;8.07;;
59788;SDS011;47353;51.614;5.530;2023-03-01T15:25:53;9.95;;;8.15;;
59788;SDS011;47353;51.614;5.530;2023-03-01T15:28:33;9.35;;;8.38;;
59788;SDS011;47353;51.614;5.530;2023-03-01T15:31:01;10.35;;;8.23;;
59788;SDS011;47353;51.614;5.530;2023-03-01T15:33:36;10.93;;;8.27;;
59788;SDS011;47353;51.614;5.530;2023-03-01T15:36:48;10.18;;;8.35;;
59788;SDS011;47353;51.614;5.530;2023-03-01T15:39:29;11.10;;;8.35;;
59788;SDS011;47353;51.614;5.530;2023-03-01T15:45:06;10.50;;;8.27;;
59788;SDS011;47353;51.614;5.530;2023-03-01T15:47:40;10.00;;;7.90;;
59788;SDS011;47353;51.614;5.530;2023-03-01T15:50:16;11.65;;;8.30;;
59788;SDS011;47353;51.614;5.530;2023-03-01T15:52:45;11.05;;;8.02;;
59788;SDS011;47353;51.614;5.530;2023-03-01T15:55:15;10.68;;;7.60;;
59788;SDS011;47353;51.614;5.530;2023-03-01T15:57:42;11.00;;;8.07;;
59788;SDS011;47353;51.614;5.530;2023-03-01T16:00:11;9.23;;;7.75;;
59788;SDS011;47353;51.614;5.530;2023-03-01T16:02:39;13.43;;;8.32;;
59788;SDS011;47353;51.614;5.530;2023-03-01T16:05:05;9.02;;;7.45;;
59788;SDS011;47353;51.614;5.530;2023-03-01T16:07:31;10.63;;;7.80;;
59788;SDS011;47353;51.614;5.530;2023-03-01T16:09:56;10.40;;;8.07;;
59788;SDS011;47353;51.614;5.530;2023-03-01T16:12:22;10.35;;;7.93;;
59788;SDS011;47353;51.614;5.530;2023-03-01T16:14:49;11.02;;;8.13;;
59788;SDS011;47353;51.614;5.530;2023-03-01T16:17:15;10.63;;;7.68;;
59788;SDS011;47353;51.614;5.530;2023-03-01T16:19:41;12.00;;;8.25;;
59788;SDS011;47353;51.614;5.530;2023-03-01T16:22:06;10.45;;;8.23;;
59788;SDS011;47353;51.614;5.530;2023-03-01T16:24:34;10.82;;;8.05;;
59788;SDS011;47353;51.614;5.530;2023-03-01T16:27:00;13.20;;;8.50;;
59788;SDS011;47353;51.614;5.530;2023-03-01T16:29:26;11.70;;;8.40;;
59788;SDS011;47353;51.614;5.530;2023-03-01T16:31:51;13.23;;;8.57;;
59788;SDS011;47353;51.614;5.530;2023-03-01T16:34:17;11.73;;;8.35;;
59788;SDS011;47353;51.614;5.530;2023-03-01T16:36:42;12.90;;;8.07;;
59788;SDS011;47353;51.614;5.530;2023-03-01T16:39:08;10.45;;;7.93;;
59788;SDS011;47353;51.614;5.530;2023-03-01T16:41:34;11.55;;;8.10;;
59788;SDS011;47353;51.614;5.530;2023-03-01T16:43:59;13.82;;;8.15;;
59788;SDS011;47353;51.614;5.530;2023-03-01T16:46:26;13.43;;;8.30;;
59788;SDS011;47353;51.614;5.530;2023-03-01T16:48:53;12.40;;;7.85;;
59788;SDS011;47353;51.614;5.530;2023-03-01T16:51:19;11.50;;;8.05;;
59788;SDS011;47353;51.614;5.530;2023-03-01T16:53:45;11.73;;;7.72;;